Time;durP1;ratioP1;P1;durP2;ratioP2;P2;SDS_P1;SDS_P2;PMS_P1;PMS_P2;Temp;Humidity;BMP_temperature;BMP_pressure;BME280_temperature;BME280_humidity;BME280_pressure;Samples;Min_cycle;Max_cycle;Signal;HPM_P1;HPM_P2
2022/04/28 00:01:47;;;;;;;6.20;5.22;;;;;;;10.58;61.00;98038.75;6083812;23;20253;-80
2022/04/28 00:04:13;;;;;;;6.47;5.80;;;;;;;10.55;60.96;98041.78;6060920;23;20173;-80
2022/04/28 00:06:38;;;;;;;8.93;7.15;;;;;;;10.48;61.16;98043.69;6120112;23;20198;-80
2022/04/28 00:09:04;;;;;;;8.20;5.88;;;;;;;10.41;60.97;98043.00;6087679;23;20167;-80
2022/04/28 00:11:30;;;;;;;7.22;5.28;;;;;;;10.40;61.41;98042.22;6112938;23;20222;-80
2022/04/28 00:13:55;;;;;;;7.53;5.32;;;;;;;10.39;61.58;98039.84;6097337;23;20272;-80
2022/04/28 00:16:21;;;;;;;6.45;5.03;;;;;;;10.32;61.64;98044.34;6086466;23;20266;-80
2022/04/28 00:18:46;;;;;;;7.03;4.80;;;;;;;10.29;61.75;98048.91;6148987;23;20398;-80
2022/04/28 00:21:11;;;;;;;5.63;4.47;;;;;;;10.30;61.85;98053.13;6087552;23;20597;-80
2022/04/28 00:23:37;;;;;;;5.82;4.80;;;;;;;10.22;61.66;98050.03;6087099;23;20249;-80
2022/04/28 00:26:02;;;;;;;5.88;4.88;;;;;;;10.26;61.81;98051.97;6097246;23;20199;-79
2022/04/28 00:28:27;;;;;;;5.30;4.80;;;;;;;10.27;61.62;98045.75;6121183;23;20171;-80
2022/04/28 00:30:53;;;;;;;5.18;4.68;;;;;;;10.26;61.44;98043.34;6063007;23;20260;-79
2022/04/28 00:33:18;;;;;;;5.57;4.90;;;;;;;10.26;61.43;98041.56;6062527;23;20530;-79
2022/04/28 00:35:44;;;;;;;6.90;5.07;;;;;;;10.26;61.43;98041.56;6096907;23;20274;-79
2022/04/28 00:38:11;;;;;;;6.70;4.78;;;;;;;10.25;61.55;98045.19;6122352;23;20180;-80
2022/04/28 00:40:36;;;;;;;5.35;4.45;;;;;;;10.27;61.48;98043.13;6121958;23;20450;-80
2022/04/28 00:43:20;;;;;;;5.93;4.88;;;;;;;10.22;61.55;98039.63;6120029;23;20364;-79
2022/04/28 00:45:47;;;;;;;6.82;4.85;;;;;;;10.19;61.36;98043.44;6149048;23;20164;-79
2022/04/28 00:51:02;;;;;;;7.38;5.72;;;;;;;10.07;61.81;98038.19;6090644;23;20157;-79
2022/04/28 00:53:33;;;;;;;5.28;4.78;;;;;;;10.01;61.66;98040.88;6121658;23;20537;-79
2022/04/28 00:56:00;;;;;;;5.82;4.45;;;;;;;10.08;61.34;98039.00;6097101;23;20137;-79
2022/04/28 00:58:25;;;;;;;5.72;5.07;;;;;;;10.05;61.66;98039.44;6087153;23;20641;-80
2022/04/28 01:00:53;;;;;;;6.38;4.65;;;;;;;10.05;61.37;98049.84;6087251;23;20309;-79
2022/04/28 01:03:38;;;;;;;6.40;5.03;;;;;;;10.00;62.00;98049.69;6097423;23;20691;-79
2022/04/28 01:06:03;;;;;;;5.43;4.57;;;;;;;9.98;61.97;98046.53;6062638;23;20251;-80
2022/04/28 01:08:29;;;;;;;4.95;3.90;;;;;;;9.96;61.73;98054.53;6121341;23;20195;-79
2022/04/28 01:10:56;;;;;;;5.97;4.60;;;;;;;9.89;61.90;98046.81;6091133;23;20262;-79
2022/04/28 01:13:22;;;;;;;6.40;5.07;;;;;;;9.84;62.09;98036.28;6121809;23;20683;-79
2022/04/28 01:15:49;;;;;;;6.13;5.10;;;;;;;9.87;61.82;98046.25;6121494;23;20335;-79
2022/04/28 01:18:15;;;;;;;6.45;4.80;;;;;;;9.90;62.23;98045.81;6096911;23;20677;-79
2022/04/28 01:20:41;;;;;;;5.97;4.45;;;;;;;9.92;61.87;98051.59;6121009;23;20168;-79
2022/04/28 01:23:07;;;;;;;6.60;5.07;;;;;;;9.92;62.41;98050.78;6062066;23;20228;-79
2022/04/28 01:25:33;;;;;;;6.07;4.80;;;;;;;9.88;62.22;98044.44;6086917;23;20228;-80
2022/04/28 01:27:58;;;;;;;6.68;4.55;;;;;;;9.90;62.27;98048.41;6121569;23;20163;-79
2022/04/28 01:30:24;;;;;;;5.68;4.93;;;;;;;9.89;61.98;98044.22;6121695;23;20663;-80
2022/04/28 01:32:51;;;;;;;5.45;4.93;;;;;;;9.92;62.18;98041.19;6147964;23;20212;-79
2022/04/28 01:35:16;;;;;;;7.55;5.18;;;;;;;9.95;61.89;98039.94;6086859;23;20204;-80
2022/04/28 01:37:44;;;;;;;8.10;5.57;;;;;;;9.93;62.04;98047.97;6097845;23;20579;-79
2022/04/28 01:40:13;;;;;;;6.10;4.57;;;;;;;9.92;62.24;98043.78;6062314;23;20149;-80
2022/04/28 01:42:42;;;;;;;6.13;4.72;;;;;;;9.85;62.34;98050.06;6121057;23;20167;-79
2022/04/28 01:45:09;;;;;;;5.65;5.05;;;;;;;9.95;62.31;98050.34;6085808;23;20175;-79
2022/04/28 01:47:35;;;;;;;5.85;4.30;;;;;;;9.88;61.72;98050.41;6148362;23;20196;-79
2022/04/28 01:50:02;;;;;;;6.00;4.65;;;;;;;9.80;61.81;98049.91;6063470;22;20172;-80
2022/04/28 01:55:12;;;;;;;6.43;4.88;;;;;;;9.70;61.35;98048.63;6125263;23;20254;-80
2022/04/28 01:57:39;;;;;;;5.60;4.57;;;;;;;9.62;61.42;98050.72;6096176;23;20619;-80
2022/04/28 02:00:06;;;;;;;4.93;4.20;;;;;;;9.52;61.33;98046.81;6148353;23;20077;-79
2022/04/28 02:02:34;;;;;;;6.55;5.30;;;;;;;9.52;61.95;98049.41;6065343;23;20606;-79
2022/04/28 02:05:05;;;;;;;5.88;4.40;;;;;;;9.46;62.10;98050.28;6123208;23;20220;-80
2022/04/28 02:07:31;;;;;;;5.85;4.93;;;;;;;9.48;62.06;98050.84;6111357;23;20258;-79
2022/04/28 02:09:57;;;;;;;6.68;4.82;;;;;;;9.44;62.40;98047.09;6116251;23;20657;-79
2022/04/28 02:12:24;;;;;;;6.55;5.15;;;;;;;9.43;62.68;98045.50;6141334;23;20077;-79
2022/04/28 02:14:50;;;;;;;6.50;4.97;;;;;;;9.43;63.08;98053.31;6087686;23;20338;-79
2022/04/28 02:17:20;;;;;;;6.13;4.88;;;;;;;9.38;62.96;98050.56;6097611;23;20510;-79
2022/04/28 02:19:45;;;;;;;5.38;4.32;;;;;;;9.40;62.17;98051.13;6063903;23;20594;-79
2022/04/28 02:22:11;;;;;;;6.05;4.95;;;;;;;9.31;62.24;98045.41;6121003;23;20254;-79
2022/04/28 02:24:36;;;;;;;5.82;4.65;;;;;;;9.38;62.42;98053.94;6096282;23;20175;-79
2022/04/28 02:27:02;;;;;;;7.03;5.10;;;;;;;9.35;62.15;98053.56;6097253;23;20250;-79
2022/04/28 02:29:28;;;;;;;5.22;4.65;;;;;;;9.31;62.82;98052.41;6096372;23;20153;-79
2022/04/28 02:31:53;;;;;;;5.63;4.78;;;;;;;9.31;62.69;98050.59;6062897;23;20102;-79
2022/04/28 02:34:18;;;;;;;5.93;4.50;;;;;;;9.36;62.56;98060.38;6148341;23;20171;-79
2022/04/28 02:36:44;;;;;;;5.78;4.80;;;;;;;9.37;62.52;98054.97;6147794;23;20259;-79
2022/04/28 02:39:09;;;;;;;7.03;4.82;;;;;;;9.35;63.00;98062.16;6122357;23;20073;-79
2022/04/28 02:41:36;;;;;;;6.38;4.90;;;;;;;9.32;63.32;98073.00;6099543;23;20246;-79
2022/04/28 02:44:01;;;;;;;6.22;4.95;;;;;;;9.28;63.03;98050.25;6065679;23;20077;-79
2022/04/28 02:46:27;;;;;;;5.65;4.60;;;;;;;9.23;62.92;98065.69;6100970;23;20183;-79
2022/04/28 02:48:52;;;;;;;5.97;5.07;;;;;;;9.20;62.92;98066.88;6126586;23;20042;-79
2022/04/28 02:51:18;;;;;;;8.48;5.63;;;;;;;9.18;62.89;98054.13;6093896;23;20176;-80
2022/04/28 02:53:43;;;;;;;7.43;5.82;;;;;;;9.20;63.14;98064.28;6064277;23;20254;-79
2022/04/28 02:56:09;;;;;;;5.82;4.50;;;;;;;9.20;63.07;98059.09;6125314;23;20240;-79
2022/04/28 02:58:34;;;;;;;6.82;5.40;;;;;;;9.21;63.15;98059.91;6100840;23;20610;-79
2022/04/28 03:01:01;;;;;;;6.35;5.75;;;;;;;9.27;63.48;98064.22;6126163;23;20601;-79
2022/04/28 03:03:26;;;;;;;6.13;5.32;;;;;;;9.27;63.46;98064.22;6101483;23;20184;-79
2022/04/28 03:11:20;;;;;;;6.78;5.43;;;;;;;9.17;63.63;98075.13;6121358;23;20496;-79
2022/04/28 03:13:45;;;;;;;7.55;5.68;;;;;;;9.14;63.62;98075.56;6064602;23;20256;-79
2022/04/28 03:16:11;;;;;;;7.35;5.80;;;;;;;9.12;64.06;98075.75;6099600;23;20195;-79
2022/04/28 03:18:37;;;;;;;7.60;6.18;;;;;;;9.13;63.95;98074.75;6151890;23;20276;-79
2022/04/28 03:21:05;;;;;;;8.77;5.85;;;;;;;9.10;63.79;98072.59;6124441;23;20590;-79
2022/04/28 03:23:30;;;;;;;7.35;5.55;;;;;;;9.15;63.72;98070.16;6099315;23;20156;-79
2022/04/28 03:25:56;;;;;;;8.52;6.45;;;;;;;9.24;63.80;98072.47;6115980;23;20625;-79
2022/04/28 03:28:22;;;;;;;7.70;5.97;;;;;;;9.27;63.75;98072.03;6126655;23;20226;-79
2022/04/28 03:30:51;;;;;;;7.13;6.15;;;;;;;9.21;63.61;98078.09;6125000;23;20669;-79
2022/04/28 03:33:17;;;;;;;8.13;6.55;;;;;;;9.29;63.38;98078.63;6099209;23;20266;-79
2022/04/28 03:35:42;;;;;;;7.40;5.55;;;;;;;9.27;63.54;98075.44;6066659;23;20234;-79
2022/04/28 03:38:13;;;;;;;7.88;5.80;;;;;;;9.22;63.42;98077.88;6124701;23;20183;-79
2022/04/28 03:40:40;;;;;;;8.43;6.30;;;;;;;9.23;63.40;98078.69;6125946;23;20592;-79
2022/04/28 03:43:06;;;;;;;7.20;5.43;;;;;;;9.21;63.72;98076.28;6125895;23;20163;-79
2022/04/28 03:45:33;;;;;;;7.75;5.78;;;;;;;9.13;64.03;98085.16;6124692;23;20289;-79
2022/04/28 03:47:58;;;;;;;6.78;5.32;;;;;;;9.19;63.43;98086.88;6099034;23;20258;-79
2022/04/28 03:50:24;;;;;;;7.47;5.82;;;;;;;9.24;63.56;98090.66;6149099;23;20187;-79
2022/04/28 03:52:49;;;;;;;7.93;5.97;;;;;;;9.21;63.60;98085.88;6097053;23;20682;-79
2022/04/28 03:55:16;;;;;;;7.10;5.72;;;;;;;9.22;63.15;98095.25;6113868;23;20149;-79
2022/04/28 03:57:42;;;;;;;6.65;5.28;;;;;;;9.21;63.51;98096.28;6097692;23;20494;-79
2022/04/28 04:00:07;;;;;;;6.53;5.28;;;;;;;9.22;63.86;98095.25;6088969;23;20182;-79
2022/04/28 04:02:33;;;;;;;9.98;6.22;;;;;;;9.20;63.36;98095.47;6122270;23;20622;-79
2022/04/28 04:04:58;;;;;;;6.78;4.95;;;;;;;9.16;63.45;98100.28;6097939;23;20187;-79
2022/04/28 04:07:31;;;;;;;7.03;5.53;;;;;;;8.99;63.90;98089.63;6122292;23;20657;-79
2022/04/28 04:09:57;;;;;;;8.05;5.78;;;;;;;9.09;63.67;98104.75;6119116;23;20340;-79
2022/04/28 04:12:22;;;;;;;7.95;5.55;;;;;;;9.04;63.79;98102.00;6097976;23;20204;-79
2022/04/28 04:14:48;;;;;;;6.72;5.38;;;;;;;9.07;63.65;98104.19;6122954;23;20570;-79
2022/04/28 04:17:14;;;;;;;7.03;5.63;;;;;;;9.04;63.35;98102.00;6122716;23;20301;-79
2022/04/28 04:19:39;;;;;;;7.47;6.07;;;;;;;9.07;63.97;98109.38;6123815;23;20144;-79
2022/04/28 04:22:05;;;;;;;6.93;5.88;;;;;;;9.04;64.05;98112.38;6122005;23;20077;-79
2022/04/28 04:24:30;;;;;;;9.95;6.53;;;;;;;8.99;64.02;98114.81;6123356;23;20639;-79
2022/04/28 04:26:57;;;;;;;9.27;7.38;;;;;;;8.97;64.56;98112.44;6122728;23;20190;-79
2022/04/28 04:29:22;;;;;;;7.82;5.90;;;;;;;8.99;64.65;98115.59;6088305;23;20179;-79
2022/04/28 04:34:32;;;;;;;7.05;6.15;;;;;;;9.01;64.22;98112.81;6091884;23;20275;-79
2022/04/28 04:36:57;;;;;;;7.88;6.68;;;;;;;9.12;64.14;98114.72;6122584;23;20263;-79
2022/04/28 04:39:22;;;;;;;8.80;6.90;;;;;;;9.20;64.48;98121.47;6088881;23;20322;-79
2022/04/28 04:41:48;;;;;;;9.32;6.70;;;;;;;9.26;63.89;98123.22;6096808;23;20625;-79
2022/04/28 04:44:14;;;;;;;8.77;7.28;;;;;;;9.31;63.95;98122.59;6121323;23;20179;-79
2022/04/28 04:46:42;;;;;;;7.97;6.60;;;;;;;9.28;63.57;98129.00;6122852;23;20179;-79
2022/04/28 04:49:08;;;;;;;8.77;7.45;;;;;;;9.40;63.69;98130.91;6089031;23;20168;-79
2022/04/28 04:51:34;;;;;;;8.63;6.57;;;;;;;9.44;63.73;98139.88;6115049;23;20384;-80
2022/04/28 04:53:59;;;;;;;9.00;7.00;;;;;;;9.50;63.31;98142.41;6096341;23;20603;-80
2022/04/28 04:56:25;;;;;;;8.52;7.05;;;;;;;9.56;63.42;98140.75;6062830;23;20167;-80
2022/04/28 04:58:50;;;;;;;11.70;8.50;;;;;;;9.56;63.56;98138.97;6087102;23;20227;-79
2022/04/28 05:01:15;;;;;;;7.93;6.53;;;;;;;9.65;62.90;98149.09;6148028;23;20187;-79
2022/04/28 05:03:41;;;;;;;7.97;6.53;;;;;;;9.68;63.49;98149.47;6120210;23;20205;-79
2022/04/28 05:06:07;;;;;;;8.90;8.00;;;;;;;9.73;63.36;98149.63;6095351;23;20164;-80
2022/04/28 05:08:33;;;;;;;10.07;8.98;;;;;;;9.81;63.49;98148.53;6096146;23;20527;-79
2022/04/28 05:10:58;;;;;;;10.52;9.38;;;;;;;9.86;63.04;98155.72;6080185;23;20124;-79
2022/04/28 05:13:23;;;;;;;9.90;8.30;;;;;;;9.93;62.84;98152.00;6120438;23;20211;-79
2022/04/28 05:15:49;;;;;;;9.52;7.13;;;;;;;9.93;62.96;98149.41;6120899;23;20179;-79
2022/04/28 05:18:14;;;;;;;9.18;7.60;;;;;;;9.99;62.89;98154.75;6096246;23;20369;-79
2022/04/28 05:20:40;;;;;;;8.75;6.80;;;;;;;10.13;62.36;98164.81;6095782;23;20647;-79
2022/04/28 05:23:05;;;;;;;8.18;7.05;;;;;;;10.16;62.62;98166.22;6120931;23;20597;-79
2022/04/28 05:25:31;;;;;;;7.80;6.20;;;;;;;10.18;62.39;98161.59;6111310;23;20319;-79
2022/04/28 05:27:56;;;;;;;8.90;6.50;;;;;;;10.21;62.60;98174.16;6062636;23;20253;-79
2022/04/28 05:30:22;;;;;;;8.85;6.57;;;;;;;10.27;62.26;98172.50;6121610;23;20497;-80
2022/04/28 05:32:48;;;;;;;7.70;6.22;;;;;;;10.36;62.02;98170.44;6120954;23;20133;-80
2022/04/28 05:35:13;;;;;;;7.63;6.40;;;;;;;10.41;62.27;98173.16;6149051;23;20185;-80
2022/04/28 05:37:39;;;;;;;7.80;6.13;;;;;;;10.36;61.85;98171.22;6112072;23;20163;-80
2022/04/28 05:40:06;;;;;;;8.57;6.38;;;;;;;10.41;61.81;98173.97;6097322;23;20196;-80
2022/04/28 05:47:59;;;;;;;8.45;6.38;;;;;;;10.81;60.96;98178.69;6090411;23;20153;-80
2022/04/28 05:50:26;;;;;;;8.13;7.28;;;;;;;10.99;60.77;98185.66;6096422;23;20207;-79
2022/04/28 05:52:51;;;;;;;8.30;6.68;;;;;;;11.02;60.39;98176.63;6062280;23;21048;-80
2022/04/28 05:55:17;;;;;;;8.32;6.78;;;;;;;11.18;60.24;98175.16;6148638;23;20172;-80
2022/04/28 05:57:42;;;;;;;8.93;6.95;;;;;;;11.34;59.65;98189.38;6121721;23;20539;-80
2022/04/28 06:00:09;;;;;;;9.35;6.63;;;;;;;11.40;59.32;98186.66;6111924;23;20278;-80
2022/04/28 06:02:37;;;;;;;10.23;6.78;;;;;;;11.65;59.28;98187.47;6086897;23;20587;-80
2022/04/28 06:05:03;;;;;;;6.68;5.57;;;;;;;11.83;58.94;98184.00;6121783;23;20238;-80
2022/04/28 06:07:29;;;;;;;7.22;5.80;;;;;;;12.06;58.86;98183.97;6096657;23;20218;-81
2022/04/28 06:09:54;;;;;;;7.07;5.68;;;;;;;12.30;58.75;98187.38;6058360;23;20254;-80
2022/04/28 06:12:20;;;;;;;8.00;5.78;;;;;;;12.48;58.24;98191.66;6060973;23;20152;-80
2022/04/28 06:14:47;;;;;;;6.10;5.13;;;;;;;12.73;57.28;98190.53;6111494;23;20244;-80
2022/04/28 06:17:13;;;;;;;6.70;5.28;;;;;;;12.92;57.04;98194.56;6118836;23;20641;-80
2022/04/28 06:19:39;;;;;;;6.05;5.40;;;;;;;13.09;56.41;98196.41;6058968;23;20183;-80
2022/04/28 06:22:04;;;;;;;5.80;5.20;;;;;;;13.24;55.95;98207.13;6095426;23;20473;-80
2022/04/28 06:24:29;;;;;;;6.00;5.40;;;;;;;13.44;55.01;98200.69;6121286;23;20344;-81
2022/04/28 06:26:55;;;;;;;5.97;5.00;;;;;;;13.56;54.27;98204.03;6087325;23;20152;-81
2022/04/28 06:29:20;;;;;;;8.05;5.88;;;;;;;13.73;54.17;98211.09;6062072;23;20184;-80
2022/04/28 06:31:45;;;;;;;6.13;5.15;;;;;;;13.81;53.82;98208.06;6147817;23;20231;-80
2022/04/28 06:34:11;;;;;;;6.97;5.55;;;;;;;13.84;52.95;98207.56;6111576;23;20154;-81
2022/04/28 06:36:36;;;;;;;6.43;4.75;;;;;;;14.08;52.78;98202.16;6096222;23;20250;-81
2022/04/28 06:39:02;;;;;;;6.15;5.03;;;;;;;14.19;52.12;98206.50;6096653;23;20108;-80
2022/04/28 06:41:28;;;;;;;5.78;4.57;;;;;;;14.26;51.76;98214.97;6062194;23;20191;-81
2022/04/28 06:43:55;;;;;;;5.43;4.55;;;;;;;14.48;50.95;98222.03;6147246;23;20623;-81
2022/04/28 06:46:20;;;;;;;5.03;4.53;;;;;;;14.64;50.85;98223.06;6062638;23;20167;-80
2022/04/28 06:48:47;;;;;;;6.35;4.72;;;;;;;14.76;50.39;98219.28;6086431;23;20378;-81
2022/04/28 06:51:12;;;;;;;7.75;5.00;;;;;;;15.05;50.49;98219.06;6088336;23;20191;-81
2022/04/28 06:53:38;;;;;;;5.15;4.53;;;;;;;15.12;50.35;98222.25;6086283;23;20252;-82
2022/04/28 06:56:04;;;;;;;7.22;5.07;;;;;;;15.10;49.05;98229.59;6062187;23;20668;-80
2022/04/28 06:58:30;;;;;;;5.32;4.47;;;;;;;15.45;49.18;98225.69;6095962;23;20578;-81
2022/04/28 07:00:55;;;;;;;5.60;4.68;;;;;;;15.49;48.83;98226.00;6096116;23;20215;-80
2022/04/28 07:03:21;;;;;;;5.65;4.50;;;;;;;15.69;48.27;98228.00;6120931;23;20560;-80
2022/04/28 07:05:46;;;;;;;6.28;4.40;;;;;;;15.75;48.38;98227.03;6096975;23;20361;-81
2022/04/28 07:08:12;;;;;;;4.72;4.00;;;;;;;15.84;47.93;98222.09;6095788;23;20160;-81
2022/04/28 07:10:40;;;;;;;6.22;4.40;;;;;;;16.02;46.96;98232.22;6057792;23;20176;-82
2022/04/28 07:13:05;;;;;;;4.75;4.05;;;;;;;16.21;47.29;98222.06;6062245;23;20517;-82
2022/04/28 07:15:33;;;;;;;6.28;3.88;;;;;;;16.32;46.57;98228.16;6120641;23;20184;-81
2022/04/28 07:17:59;;;;;;;4.35;3.75;;;;;;;16.47;45.72;98222.97;6096225;23;20190;-80
2022/04/28 07:20:24;;;;;;;4.88;4.20;;;;;;;16.54;44.72;98225.38;6096257;23;20675;-80
2022/04/28 07:22:50;;;;;;;5.03;4.28;;;;;;;17.13;45.87;98226.09;6085687;23;20186;-80
2022/04/28 07:25:15;;;;;;;5.07;3.88;;;;;;;17.56;45.52;98235.34;6121099;23;20592;-81
2022/04/28 07:27:40;;;;;;;4.25;3.78;;;;;;;17.55;43.57;98235.59;6123170;23;20722;-82
2022/04/28 07:30:06;;;;;;;3.97;3.58;;;;;;;17.93;42.93;98233.50;6097834;23;20213;-82
2022/04/28 07:32:35;;;;;;;4.65;4.03;;;;;;;17.83;41.20;98234.25;6112566;23;20145;-82
2022/04/28 07:35:00;;;;;;;4.45;3.55;;;;;;;18.02;42.71;98234.53;6122094;23;20179;-83
2022/04/28 07:37:25;;;;;;;5.80;4.22;;;;;;;18.18;41.77;98235.31;6097827;23;20589;-83
2022/04/28 07:39:51;;;;;;;4.25;3.72;;;;;;;18.15;41.16;98241.88;6098320;23;20664;-81
2022/04/28 07:42:16;;;;;;;4.22;3.65;;;;;;;18.27;40.79;98243.47;6122695;23;20262;-81
2022/04/28 07:44:41;;;;;;;3.83;3.22;;;;;;;18.09;41.70;98245.59;6066308;23;20258;-82
2022/04/28 07:47:07;;;;;;;4.35;3.90;;;;;;;18.38;40.30;98238.94;6123637;23;20576;-82
2022/04/28 07:49:33;;;;;;;3.97;3.55;;;;;;;18.74;41.18;98242.22;6064405;23;20164;-79
2022/04/28 07:51:58;;;;;;;3.90;3.55;;;;;;;18.60;40.64;98249.16;6089606;23;20195;-84
2022/04/28 07:54:24;;;;;;;4.07;3.78;;;;;;;18.60;40.15;98241.22;6097103;23;20246;-83
2022/04/28 07:56:49;;;;;;;3.58;3.17;;;;;;;18.90;38.53;98238.47;6095552;23;20519;-81
2022/04/28 07:59:15;;;;;;;3.92;3.00;;;;;;;19.28;39.64;98246.69;6060167;23;20132;-83
2022/04/28 08:01:40;;;;;;;4.43;3.70;;;;;;;19.75;39.57;98239.22;6096890;23;20385;-83
2022/04/28 08:04:05;;;;;;;4.03;3.50;;;;;;;19.24;39.45;98250.97;6098097;23;20161;-83
2022/04/28 08:06:31;;;;;;;3.83;3.35;;;;;;;19.15;39.39;98247.31;6095569;23;20168;-84
2022/04/28 08:08:56;;;;;;;3.60;3.25;;;;;;;18.97;37.35;98248.75;6097475;23;20140;-80
2022/04/28 08:11:21;;;;;;;3.30;3.00;;;;;;;19.61;37.49;98244.34;6086930;23;20216;-80
2022/04/28 08:13:47;;;;;;;3.53;3.13;;;;;;;20.24;34.46;98247.22;6120738;23;20267;-82
2022/04/28 08:16:12;;;;;;;3.45;3.15;;;;;;;20.32;34.73;98254.53;6121762;23;20164;-83
2022/04/28 08:18:39;;;;;;;5.32;2.90;;;;;;;20.75;36.13;98255.41;6086578;23;20149;-81
2022/04/28 08:21:04;;;;;;;3.35;2.90;;;;;;;20.94;34.55;98252.00;6097184;23;20251;-85
2022/04/28 08:23:30;;;;;;;2.92;2.58;;;;;;;21.37;35.29;98251.09;6061437;23;20184;-85
2022/04/28 08:25:55;;;;;;;3.67;2.90;;;;;;;21.08;32.88;98250.19;6097062;23;20282;-83
2022/04/28 08:28:22;;;;;;;3.20;2.90;;;;;;;21.56;34.27;98251.09;6085634;23;20280;-83
2022/04/28 08:30:48;;;;;;;2.75;2.45;;;;;;;21.74;32.42;98258.22;6111204;23;20199;-84
2022/04/28 08:33:13;;;;;;;3.53;2.80;;;;;;;21.57;34.26;98263.28;6090123;23;20594;-82
2022/04/28 08:35:39;;;;;;;3.33;2.95;;;;;;;21.83;31.76;98253.84;6123246;23;20195;-83
2022/04/28 08:38:04;;;;;;;2.72;2.53;;;;;;;21.97;34.25;98259.16;6098397;23;20163;-83
2022/04/28 08:40:31;;;;;;;2.85;2.65;;;;;;;21.97;31.84;98261.81;6114466;23;20081;-80
2022/04/28 08:42:58;;;;;;;3.25;3.03;;;;;;;22.00;32.47;98265.75;6098868;23;20590;-84
2022/04/28 08:45:29;;;;;;;2.60;2.40;;;;;;;21.53;30.48;98271.03;6064934;23;20081;-83
2022/04/28 08:47:57;;;;;;;3.15;2.80;;;;;;;21.62;31.75;98263.19;6088485;23;20224;-84
2022/04/28 08:50:22;;;;;;;3.63;2.80;;;;;;;21.56;31.56;98267.00;6092669;23;20539;-85
2022/04/28 08:52:49;;;;;;;3.55;2.97;;;;;;;21.87;31.69;98267.31;6078617;23;20168;-83
2022/04/28 08:55:16;;;;;;;3.30;2.80;;;;;;;21.46;31.56;98274.03;6122263;23;20583;-84
2022/04/28 08:57:42;;;;;;;2.92;2.70;;;;;;;21.72;31.88;98265.69;6082583;23;20195;-82
2022/04/28 09:00:08;;;;;;;2.92;2.60;;;;;;;22.33;32.29;98263.84;6061605;23;20544;-82
2022/04/28 09:02:34;;;;;;;3.50;2.60;;;;;;;22.35;32.26;98274.94;6122968;23;20189;-82
2022/04/28 09:05:04;;;;;;;3.30;2.78;;;;;;;22.43;30.77;98273.47;6124941;23;20174;-82
2022/04/28 09:07:42;;;;;;;2.95;2.75;;;;;;;22.46;30.81;98277.41;6123841;23;20273;-83
2022/04/28 09:10:32;;;;;;;3.55;2.42;;;;;;;22.75;28.79;98277.88;6113527;23;20524;-82
2022/04/28 09:15:48;;;;;;;3.03;2.75;;;;;;;23.24;29.74;98259.63;6084499;23;20542;-84
2022/04/28 09:18:15;;;;;;;4.40;2.72;;;;;;;23.40;28.86;98273.31;6055406;23;20235;-82
2022/04/28 09:20:42;;;;;;;3.08;2.70;;;;;;;23.26;28.65;98268.06;6087361;23;20572;-80
2022/04/28 09:23:12;;;;;;;3.17;2.58;;;;;;;23.38;26.76;98270.97;6101525;23;20696;-84
2022/04/28 09:25:39;;;;;;;2.70;2.50;;;;;;;23.50;28.72;98262.47;6125313;23;20133;-83
2022/04/28 09:28:05;;;;;;;2.38;2.17;;;;;;;23.52;27.87;98267.47;6089566;23;20213;-84
2022/04/28 09:30:45;;;;;;;3.03;2.83;;;;;;;23.30;28.11;98266.38;6100157;23;20188;-82
2022/04/28 09:33:12;;;;;;;2.78;2.58;;;;;;;22.77;26.72;98269.63;6099892;23;20294;-83
2022/04/28 09:35:49;;;;;;;2.65;2.35;;;;;;;23.15;29.39;98266.72;6100579;23;20183;-84
2022/04/28 09:38:16;;;;;;;2.17;2.08;;;;;;;23.53;26.82;98264.50;6065803;23;20085;-82
2022/04/28 09:43:34;;;;;;;2.65;2.13;;;;;;;23.45;28.56;98269.78;6126610;23;20187;-82
2022/04/28 09:46:01;;;;;;;2.40;2.20;;;;;;;23.56;26.76;98274.56;6127108;23;20298;-82
2022/04/28 09:48:31;;;;;;;3.40;2.78;;;;;;;23.71;26.55;98261.97;6089977;23;20139;-83
2022/04/28 09:51:06;;;;;;;3.25;2.95;;;;;;;23.03;23.89;98269.88;6095836;23;20259;-86
2022/04/28 09:53:33;;;;;;;2.20;1.98;;;;;;;23.51;25.16;98268.53;6060515;23;20356;-82
2022/04/28 09:56:04;;;;;;;3.08;2.25;;;;;;;23.41;26.15;98264.28;6061012;23;20145;-83
2022/04/28 09:58:32;;;;;;;2.40;2.20;;;;;;;22.88;25.01;98262.25;6120658;23;20542;-84
2022/04/28 10:01:01;;;;;;;2.40;2.17;;;;;;;22.36;24.75;98267.78;6085716;23;20188;-83
2022/04/28 10:03:29;;;;;;;2.47;2.25;;;;;;;22.63;24.25;98259.78;6086015;23;20171;-81
2022/04/28 10:05:57;;;;;;;2.45;2.25;;;;;;;23.00;26.44;98268.59;6096127;23;20157;-81
2022/04/28 10:08:24;;;;;;;2.17;1.98;;;;;;;22.96;25.29;98270.28;6061692;23;20254;-81
2022/04/28 10:10:53;;;;;;;2.28;1.98;;;;;;;22.93;23.86;98262.91;6037327;23;20223;-80
2022/04/28 10:13:19;;;;;;;3.22;2.13;;;;;;;23.11;24.92;98265.75;6085476;23;20175;-82
2022/04/28 10:15:48;;;;;;;2.63;2.42;;;;;;;23.30;24.90;98273.56;6110391;23;20656;-83
2022/04/28 10:18:16;;;;;;;2.80;2.45;;;;;;;23.61;24.23;98270.97;6120235;23;20543;-85
2022/04/28 10:20:43;;;;;;;2.55;2.35;;;;;;;23.04;24.29;98274.09;6119774;23;20176;-82
2022/04/28 10:23:12;;;;;;;2.30;2.10;;;;;;;22.83;26.32;98276.41;6110675;23;20188;-82
2022/04/28 10:34:19;;;;;;;2.30;2.00;;;;;;;22.68;25.02;98261.56;6090559;23;20583;-81
2022/04/28 10:36:58;;;;;;;1.83;1.67;;;;;;;23.21;23.96;98260.22;6096586;23;20291;-82
2022/04/28 10:39:45;;;;;;;2.85;2.03;;;;;;;23.72;24.97;98252.91;6095445;23;20590;-82
2022/04/28 10:42:40;;;;;;;2.10;1.90;;;;;;;23.50;25.77;98264.34;6094333;23;20164;-84
2022/04/28 10:45:22;;;;;;;4.45;2.30;;;;;;;23.46;25.05;98260.69;6119153;23;20652;-83
2022/04/28 10:47:48;;;;;;;3.00;2.15;;;;;;;23.60;23.37;98261.44;6120494;23;20745;-82
2022/04/28 10:50:27;;;;;;;2.65;2.33;;;;;;;23.78;25.13;98248.25;6109399;23;20212;-84
2022/04/28 10:53:00;;;;;;;2.50;2.30;;;;;;;23.33;22.66;98259.69;6048796;23;20203;-82
2022/04/28 10:55:33;;;;;;;2.40;2.13;;;;;;;23.17;23.49;98261.91;6095166;23;20379;-82
2022/04/28 10:58:20;;;;;;;2.47;1.95;;;;;;;23.46;22.22;98266.00;6085386;23;20183;-82
2022/04/28 11:00:57;;;;;;;2.63;2.13;;;;;;;24.22;23.80;98243.94;6061304;23;20571;-79
2022/04/28 11:03:48;;;;;;;2.95;1.80;;;;;;;24.46;24.70;98262.94;6112707;23;20245;-83
2022/04/28 11:06:21;;;;;;;2.65;2.25;;;;;;;23.91;24.60;98252.72;6087466;23;20219;-83
2022/04/28 11:08:49;;;;;;;2.63;2.42;;;;;;;24.35;22.67;98253.69;6096668;23;20226;-80
2022/04/28 11:11:15;;;;;;;2.75;2.53;;;;;;;24.33;23.66;98257.75;6087280;23;20253;-83
2022/04/28 11:13:43;;;;;;;2.55;2.35;;;;;;;24.34;22.53;98265.44;6148633;23;20236;-81
2022/04/28 11:16:10;;;;;;;2.15;1.95;;;;;;;24.92;21.98;98244.13;6097698;23;20179;-81
2022/04/28 11:18:36;;;;;;;3.08;2.25;;;;;;;24.90;23.93;98244.44;6097500;23;20583;-80
2022/04/28 11:21:03;;;;;;;2.80;2.60;;;;;;;24.32;24.45;98254.31;6110986;23;20187;-82
2022/04/28 11:23:35;;;;;;;2.42;2.22;;;;;;;24.50;23.44;98260.47;6095882;23;20180;-81
2022/04/28 11:26:02;;;;;;;2.90;2.70;;;;;;;24.00;23.30;98253.53;6087120;23;20630;-79
2022/04/28 11:28:29;;;;;;;2.85;2.60;;;;;;;24.30;24.18;98248.50;6111746;23;20054;-84
2022/04/28 11:30:57;;;;;;;2.92;2.42;;;;;;;24.04;23.80;98233.22;6120480;23;20270;-81
2022/04/28 11:33:22;;;;;;;2.42;2.22;;;;;;;24.54;24.82;98232.16;6121567;23;20141;-79
2022/04/28 11:35:47;;;;;;;3.22;2.60;;;;;;;24.67;25.66;98225.91;6095373;23;20218;-81
2022/04/28 11:38:13;;;;;;;2.53;2.25;;;;;;;24.58;25.97;98229.66;6148479;23;20163;-80
2022/04/28 11:40:39;;;;;;;3.72;2.38;;;;;;;24.21;23.13;98237.03;6091282;23;20209;-81
2022/04/28 11:43:05;;;;;;;2.70;2.20;;;;;;;24.25;24.41;98238.00;6099455;23;20207;-82
2022/04/28 11:45:32;;;;;;;3.13;2.83;;;;;;;24.18;23.43;98235.78;6121614;23;20324;-83
2022/04/28 11:47:59;;;;;;;2.63;2.22;;;;;;;24.11;26.74;98238.09;6087198;23;20632;-81
2022/04/28 11:50:27;;;;;;;5.15;2.65;;;;;;;23.88;25.16;98245.34;6093719;23;20539;-84
2022/04/28 11:53:05;;;;;;;2.70;2.50;;;;;;;23.80;24.03;98244.16;6088264;23;20180;-78
2022/04/28 11:55:35;;;;;;;2.72;2.53;;;;;;;24.19;23.52;98233.91;6121536;23;20222;-80
2022/04/28 11:58:01;;;;;;;2.90;2.60;;;;;;;24.29;23.31;98239.72;6111666;23;20228;-81
2022/04/28 12:00:27;;;;;;;2.97;2.78;;;;;;;23.99;23.91;98236.03;6120547;23;20179;-81
2022/04/28 12:02:54;;;;;;;3.17;2.88;;;;;;;24.39;23.90;98224.56;6122369;23;20072;-82
2022/04/28 12:05:22;;;;;;;3.05;2.78;;;;;;;24.28;24.15;98226.72;6061874;23;20602;-83
2022/04/28 12:07:51;;;;;;;3.83;2.70;;;;;;;24.90;25.08;98231.13;6120979;23;20328;-81
2022/04/28 12:15:56;;;;;;;3.88;3.28;;;;;;;25.16;23.96;98219.69;6091128;23;20179;-80